Adlington, United Kingdom
Current Conditions -  °F | °C
As of 12:50 PM on Wednesday 22 Oct 2014 (Local Time) from EGNO Reporting Station
Light Rain Light Rain  
Wind Chill: 12°   Ceiling: 3100
Heat Index: 12°   Visibility: 5mi
Dew Point: 10°   Wind: 18mph
Humidity: 88%   Direction: 280°W
Pressure: 30.18"   Gusts: NA
Location:  53.61°N, 2.61°W
Report Text: EGNO 221150Z 28016KT 8000 -RA SCT013 BKN031 12/10 Q1022
Loading
Personal Weather Stations






























Interactive Weather Map
Tropical Storm Tracking
New forecast layout! Learn more

10-Day Weather Forecast

Advertisements
Track Severe Weather on mobile